Time,TemperatureF,DewpointF,PressureIn,WindDirection,WindDirectionDegrees,WindSpeedMPH,WindSpeedGustMPH,Humidity,HourlyPrecipIn,Conditions,Clouds,dailyrainin,SolarRadiationWatts/m^2,SoftwareType,DateUTC
2013-09-06 00:01:00,64.4,57.0,29.62,WNW,302,0.0,0.0,77,0.00,,,0.00,0,WeatherCatV1.02B3,2013-09-06 07:01:00,
2013-09-06 00:06:00,64.5,57.5,29.62,WNW,302,0.0,0.0,78,0.00,,,0.00,0,WeatherCatV1.02B3,2013-09-06 07:06:00,
2013-09-06 00:11:00,65.0,57.6,29.62,WNW,302,0.0,0.0,77,0.00,,,0.00,0,WeatherCatV1.02B3,2013-09-06 07:11:00,
2013-09-06 00:16:00,64.8,57.4,29.62,WNW,302,0.0,0.0,77,0.00,,,0.00,0,WeatherCatV1.02B3,2013-09-06 07:16:00,
2013-09-06 00:21:00,64.6,57.6,29.62,WNW,302,0.0,0.0,78,0.00,,,0.00,0,WeatherCatV1.02B3,2013-09-06 07:21:00,
2013-09-06 00:26:00,64.4,57.4,29.62,WNW,302,0.0,0.0,78,0.00,,,0.00,0,WeatherCatV1.02B3,2013-09-06 07:26:00,
2013-09-06 00:31:00,64.5,57.1,29.62,WNW,302,0.0,0.0,77,0.00,,,0.00,0,WeatherCatV1.02B3,2013-09-06 07:31:00,
2013-09-06 00:36:00,64.4,57.4,29.62,WNW,302,0.0,0.0,78,0.00,,,0.00,0,WeatherCatV1.02B3,2013-09-06 07:36:00,
2013-09-06 00:42:00,64.3,57.3,29.62,WNW,302,0.0,0.0,78,0.00,,,0.00,0,WeatherCatV1.02B3,2013-09-06 07:42:00,
2013-09-06 00:47:00,63.6,56.6,29.62,WNW,302,0.0,0.0,78,0.00,,,0.00,0,WeatherCatV1.02B3,2013-09-06 07:47:00,
2013-09-06 00:51:00,64.0,56.6,29.62,WNW,302,0.0,0.0,77,0.00,,,0.00,0,WeatherCatV1.02B3,2013-09-06 07:51:00,
2013-09-06 00:56:00,63.9,56.5,29.62,WNW,302,0.0,0.0,77,0.00,,,0.00,0,WeatherCatV1.02B3,2013-09-06 07:56:00,
2013-09-06 01:01:00,64.0,55.9,29.62,North,5,0.0,2.0,75,0.00,,,0.00,0,WeatherCatV1.02B3,2013-09-06 08:01:00,
2013-09-06 01:07:00,65.1,54.3,29.62,NNE,30,0.0,1.0,68,0.00,,,0.00,0,WeatherCatV1.02B3,2013-09-06 08:07:00,
2013-09-06 01:12:00,64.9,54.1,29.62,NNE,30,0.0,0.0,68,0.00,,,0.00,0,WeatherCatV1.02B3,2013-09-06 08:12:00,
2013-09-06 01:17:00,64.9,54.1,29.62,NNE,30,0.0,1.0,68,0.00,,,0.00,0,WeatherCatV1.02B3,2013-09-06 08:17:00,
2013-09-06 01:22:00,64.1,53.7,29.62,NNE,30,0.0,0.0,69,0.00,,,0.00,0,WeatherCatV1.02B3,2013-09-06 08:22:00,
2013-09-06 01:27:00,64.2,54.2,29.62,NNE,30,0.0,0.0,70,0.00,,,0.00,0,WeatherCatV1.02B3,2013-09-06 08:27:00,
2013-09-06 01:32:00,63.3,53.0,29.62,NNE,30,0.0,0.0,69,0.00,,,0.00,0,WeatherCatV1.02B3,2013-09-06 08:32:00,
2013-09-06 01:37:00,63.0,52.7,29.62,NNE,30,0.0,1.0,69,0.00,,,0.00,0,WeatherCatV1.02B3,2013-09-06 08:37:00,
2013-09-06 01:42:00,63.1,53.5,29.62,NNE,30,0.0,0.0,71,0.00,,,0.00,0,WeatherCatV1.02B3,2013-09-06 08:42:00,
2013-09-06 01:47:00,63.6,53.2,29.62,NNE,30,0.0,0.0,69,0.00,,,0.00,0,WeatherCatV1.02B3,2013-09-06 08:47:00,
2013-09-06 01:52:00,63.2,53.2,29.62,NNE,30,0.0,0.0,70,0.00,,,0.00,0,WeatherCatV1.02B3,2013-09-06 08:52:00,
2013-09-06 01:57:00,63.0,53.1,29.62,NNE,30,0.0,0.0,70,0.00,,,0.00,0,WeatherCatV1.02B3,2013-09-06 08:57:00,
2013-09-06 02:02:00,63.1,53.5,29.62,NNE,30,0.0,0.0,71,0.00,,,0.00,0,WeatherCatV1.02B3,2013-09-06 09:02:00,
2013-09-06 02:07:00,63.3,53.0,29.62,NNE,30,0.0,0.0,69,0.00,,,0.00,0,WeatherCatV1.02B3,2013-09-06 09:07:00,
2013-09-06 02:12:00,63.2,52.9,29.62,NNE,30,0.0,0.0,69,0.00,,,0.00,0,WeatherCatV1.02B3,2013-09-06 09:12:00,
2013-09-06 02:17:00,63.4,52.6,29.62,NNE,30,0.0,0.0,68,0.00,,,0.00,0,WeatherCatV1.02B3,2013-09-06 09:17:00,
2013-09-06 02:22:00,63.1,52.4,29.62,NNE,30,0.0,0.0,68,0.00,,,0.00,0,WeatherCatV1.02B3,2013-09-06 09:22:00,
2013-09-06 02:27:00,62.9,52.2,29.62,NNE,30,0.0,0.0,68,0.00,,,0.00,0,WeatherCatV1.02B3,2013-09-06 09:27:00,
2013-09-06 02:32:00,63.3,52.6,29.62,NNE,30,0.0,0.0,68,0.00,,,0.00,0,WeatherCatV1.02B3,2013-09-06 09:32:00,
2013-09-06 02:37:00,62.8,52.1,29.62,NNE,30,0.0,0.0,68,0.00,,,0.00,0,WeatherCatV1.02B3,2013-09-06 09:37:00,
2013-09-06 02:42:00,62.7,52.4,29.62,NNE,30,0.0,0.0,69,0.00,,,0.00,0,WeatherCatV1.02B3,2013-09-06 09:42:00,
2013-09-06 02:47:00,62.6,52.3,29.62,NNE,30,0.0,0.0,69,0.00,,,0.00,0,WeatherCatV1.02B3,2013-09-06 09:47:00,
2013-09-06 02:52:00,63.4,52.6,29.62,NNE,30,0.0,0.0,68,0.00,,,0.00,0,WeatherCatV1.02B3,2013-09-06 09:52:00,
2013-09-06 02:57:00,63.0,52.3,29.62,NNE,30,0.0,0.0,68,0.00,,,0.00,0,WeatherCatV1.02B3,2013-09-06 09:57:00,
2013-09-06 03:02:00,62.8,52.5,29.62,NNE,30,0.0,0.0,69,0.00,,,0.00,0,WeatherCatV1.02B3,2013-09-06 10:02:00,
2013-09-06 03:07:00,62.9,52.6,29.62,NNE,30,0.0,0.0,69,0.00,,,0.00,0,WeatherCatV1.02B3,2013-09-06 10:07:00,
2013-09-06 03:12:00,63.0,52.7,29.62,NNE,30,0.0,0.0,69,0.00,,,0.00,0,WeatherCatV1.02B3,2013-09-06 10:12:00,
2013-09-06 03:17:00,62.5,52.2,29.62,NNE,30,0.0,0.0,69,0.00,,,0.00,0,WeatherCatV1.02B3,2013-09-06 10:17:00,
2013-09-06 03:22:00,62.2,51.5,29.62,NNE,30,0.0,0.0,68,0.00,,,0.00,0,WeatherCatV1.02B3,2013-09-06 10:22:00,
2013-09-06 03:27:00,62.5,52.2,29.62,NNE,30,0.0,0.0,69,0.00,,,0.00,0,WeatherCatV1.02B3,2013-09-06 10:27:00,
2013-09-06 03:32:00,62.1,52.6,29.62,NNE,30,0.0,0.0,71,0.00,,,0.00,0,WeatherCatV1.02B3,2013-09-06 10:32:00,
2013-09-06 03:37:00,62.1,52.6,29.62,NNE,30,1.0,1.0,71,0.00,,,0.00,0,WeatherCatV1.02B3,2013-09-06 10:37:00,
2013-09-06 03:42:00,62.2,51.9,29.62,NNE,30,0.0,0.0,69,0.00,,,0.00,0,WeatherCatV1.02B3,2013-09-06 10:42:00,
2013-09-06 03:47:00,62.2,52.3,29.62,NNE,30,0.0,0.0,70,0.00,,,0.00,0,WeatherCatV1.02B3,2013-09-06 10:47:00,
2013-09-06 03:52:00,62.4,52.1,29.62,NNE,30,0.0,0.0,69,0.00,,,0.00,0,WeatherCatV1.02B3,2013-09-06 10:52:00,
2013-09-06 03:57:00,62.1,51.8,29.62,NNE,30,0.0,0.0,69,0.00,,,0.00,0,WeatherCatV1.02B3,2013-09-06 10:57:00,
2013-09-06 04:02:00,62.1,51.8,29.62,NNE,30,0.0,0.0,69,0.00,,,0.00,0,WeatherCatV1.02B3,2013-09-06 11:02:00,
2013-09-06 04:07:00,61.9,51.6,29.62,NNE,30,0.0,1.0,69,0.00,,,0.00,0,WeatherCatV1.02B3,2013-09-06 11:07:00,
2013-09-06 04:12:00,61.4,51.5,29.62,NNE,30,0.0,0.0,70,0.00,,,0.00,0,WeatherCatV1.02B3,2013-09-06 11:12:00,
2013-09-06 04:17:00,61.8,51.9,29.62,NNE,30,0.0,0.0,70,0.00,,,0.00,0,WeatherCatV1.02B3,2013-09-06 11:17:00,
2013-09-06 04:22:00,62.2,51.9,29.62,NNE,30,0.0,0.0,69,0.00,,,0.00,0,WeatherCatV1.02B3,2013-09-06 11:22:00,
2013-09-06 04:27:00,62.0,51.7,29.62,NNE,30,0.0,0.0,69,0.00,,,0.00,0,WeatherCatV1.02B3,2013-09-06 11:27:00,
2013-09-06 04:32:00,61.7,51.8,29.62,NNE,30,0.0,0.0,70,0.00,,,0.00,0,WeatherCatV1.02B3,2013-09-06 11:32:00,
2013-09-06 04:37:00,61.4,51.9,29.62,NNE,30,0.0,0.0,71,0.00,,,0.00,0,WeatherCatV1.02B3,2013-09-06 11:37:00,
2013-09-06 04:42:00,61.2,51.3,29.62,NNE,30,0.0,0.0,70,0.00,,,0.00,0,WeatherCatV1.02B3,2013-09-06 11:42:00,
2013-09-06 04:46:00,61.7,51.8,29.62,NNE,30,0.0,0.0,70,0.00,,,0.00,0,WeatherCatV1.02B3,2013-09-06 11:46:00,
2013-09-06 04:52:00,61.2,51.3,29.62,NNE,30,0.0,0.0,70,0.00,,,0.00,0,WeatherCatV1.02B3,2013-09-06 11:52:00,
2013-09-06 04:57:00,60.7,51.2,29.62,NNE,30,0.0,0.0,71,0.00,,,0.00,0,WeatherCatV1.02B3,2013-09-06 11:57:00,
2013-09-06 05:02:00,60.8,51.7,29.62,NNE,30,0.0,0.0,72,0.00,,,0.00,0,WeatherCatV1.02B3,2013-09-06 12:02:00,
2013-09-06 05:07:00,60.9,51.8,29.62,NNE,30,0.0,0.0,72,0.00,,,0.00,0,WeatherCatV1.02B3,2013-09-06 12:07:00,
2013-09-06 05:12:00,60.8,51.7,29.62,NNE,30,0.0,0.0,72,0.00,,,0.00,0,WeatherCatV1.02B3,2013-09-06 12:12:00,
2013-09-06 05:17:00,61.0,51.9,29.62,NNE,30,0.0,0.0,72,0.00,,,0.00,0,WeatherCatV1.02B3,2013-09-06 12:17:00,
2013-09-06 05:21:00,60.4,51.0,29.62,NNE,30,0.0,0.0,71,0.00,,,0.00,0,WeatherCatV1.02B3,2013-09-06 12:21:00,
2013-09-06 05:26:00,61.1,52.0,29.62,NNE,30,0.0,0.0,72,0.00,,,0.00,0,WeatherCatV1.02B3,2013-09-06 12:26:00,
2013-09-06 05:31:00,61.1,51.6,29.62,NNE,30,0.0,0.0,71,0.00,,,0.00,0,WeatherCatV1.02B3,2013-09-06 12:31:00,
2013-09-06 05:37:00,60.7,51.6,29.62,NNE,30,0.0,1.0,72,0.00,,,0.00,0,WeatherCatV1.02B3,2013-09-06 12:37:00,
2013-09-06 05:42:00,60.4,51.7,29.62,NNE,30,0.0,0.0,73,0.00,,,0.00,0,WeatherCatV1.02B3,2013-09-06 12:42:00,
2013-09-06 05:47:00,60.4,51.7,29.62,NNE,30,0.0,1.0,73,0.00,,,0.00,0,WeatherCatV1.02B3,2013-09-06 12:47:00,
2013-09-06 05:52:00,60.6,51.9,29.62,NNE,30,0.0,0.0,73,0.00,,,0.00,0,WeatherCatV1.02B3,2013-09-06 12:52:00,
2013-09-06 05:57:00,60.3,51.6,29.62,NNE,30,0.0,0.0,73,0.00,,,0.00,0,WeatherCatV1.02B3,2013-09-06 12:57:00,
2013-09-06 06:02:00,60.0,51.3,29.62,NNE,30,0.0,0.0,73,0.00,,,0.00,0,WeatherCatV1.02B3,2013-09-06 13:02:00,
2013-09-06 06:07:00,60.0,51.7,29.62,NNE,30,0.0,0.0,74,0.00,,,0.00,0,WeatherCatV1.02B3,2013-09-06 13:07:00,
2013-09-06 06:12:00,60.5,51.8,29.62,NNE,30,0.0,0.0,73,0.00,,,0.00,0,WeatherCatV1.02B3,2013-09-06 13:12:00,
2013-09-06 06:16:00,60.4,51.3,29.62,NNE,30,0.0,0.0,72,0.00,,,0.00,0,WeatherCatV1.02B3,2013-09-06 13:16:00,
2013-09-06 06:22:00,60.6,51.9,29.62,NNE,30,0.0,0.0,73,0.00,,,0.00,0,WeatherCatV1.02B3,2013-09-06 13:22:00,
2013-09-06 06:27:00,60.8,51.7,29.62,NNE,30,0.0,1.0,72,0.00,,,0.00,0,WeatherCatV1.02B3,2013-09-06 13:27:00,
2013-09-06 06:31:00,60.7,51.6,29.62,NNE,30,0.0,0.0,72,0.00,,,0.00,0,WeatherCatV1.02B3,2013-09-06 13:31:00,
2013-09-06 06:36:00,60.2,51.5,29.62,NNE,30,0.0,0.0,73,0.00,,,0.00,0,WeatherCatV1.02B3,2013-09-06 13:36:00,
2013-09-06 06:41:00,59.7,51.4,29.62,NNE,30,0.0,0.0,74,0.00,,,0.00,7,WeatherCatV1.02B3,2013-09-06 13:41:00,
2013-09-06 06:46:00,59.5,51.2,29.62,NNE,30,0.0,0.0,74,0.00,,,0.00,9,WeatherCatV1.02B3,2013-09-06 13:46:00,
2013-09-06 06:51:00,59.5,51.6,29.62,NNE,30,0.0,0.0,75,0.00,,,0.00,11,WeatherCatV1.02B3,2013-09-06 13:51:00,
2013-09-06 06:56:00,59.5,51.2,29.62,NNE,30,0.0,0.0,74,0.00,,,0.00,12,WeatherCatV1.02B3,2013-09-06 13:56:00,
2013-09-06 07:01:00,59.5,50.8,29.62,NNE,30,0.0,0.0,73,0.00,,,0.00,12,WeatherCatV1.02B3,2013-09-06 14:01:00,
2013-09-06 07:07:00,59.7,51.4,29.62,NNE,30,0.0,0.0,74,0.00,,,0.00,14,WeatherCatV1.02B3,2013-09-06 14:07:00,
2013-09-06 07:12:00,59.8,51.1,29.62,NNE,30,0.0,0.0,73,0.00,,,0.00,16,WeatherCatV1.02B3,2013-09-06 14:12:00,
2013-09-06 07:17:00,59.9,51.6,29.62,NNE,30,0.0,0.0,74,0.00,,,0.00,18,WeatherCatV1.02B3,2013-09-06 14:17:00,
2013-09-06 07:22:00,60.6,51.9,29.62,NNE,30,0.0,0.0,73,0.00,,,0.00,19,WeatherCatV1.02B3,2013-09-06 14:22:00,
2013-09-06 07:26:00,60.8,52.1,29.62,NNE,30,0.0,0.0,73,0.00,,,0.00,21,WeatherCatV1.02B3,2013-09-06 14:26:00,
2013-09-06 07:31:00,61.6,52.5,29.62,NNE,30,0.0,0.0,72,0.00,,,0.00,23,WeatherCatV1.02B3,2013-09-06 14:31:00,
2013-09-06 07:37:00,62.2,52.7,29.62,NNE,30,0.0,0.0,71,0.00,,,0.00,23,WeatherCatV1.02B3,2013-09-06 14:37:00,
2013-09-06 07:42:00,62.6,53.1,29.62,NNE,30,0.0,0.0,71,0.00,,,0.00,26,WeatherCatV1.02B3,2013-09-06 14:42:00,
2013-09-06 07:47:00,63.4,53.4,29.62,NNE,30,0.0,0.0,70,0.00,,,0.00,25,WeatherCatV1.02B3,2013-09-06 14:47:00,
2013-09-06 07:52:00,64.6,53.8,29.62,NNE,30,0.0,0.0,68,0.00,,,0.00,28,WeatherCatV1.02B3,2013-09-06 14:52:00,
2013-09-06 07:57:00,65.9,54.2,29.62,NNE,30,0.0,1.0,66,0.00,,,0.00,28,WeatherCatV1.02B3,2013-09-06 14:57:00,
2013-09-06 08:02:00,66.7,54.1,29.62,NNE,30,0.0,0.0,64,0.00,,,0.00,28,WeatherCatV1.02B3,2013-09-06 15:02:00,
2013-09-06 08:07:00,67.1,54.1,29.62,NNE,30,0.0,0.0,63,0.00,,,0.00,28,WeatherCatV1.02B3,2013-09-06 15:07:00,
2013-09-06 08:12:00,67.7,54.2,29.62,NNE,30,0.0,0.0,62,0.00,,,0.00,30,WeatherCatV1.02B3,2013-09-06 15:12:00,
2013-09-06 08:17:00,68.9,54.4,29.62,NNE,30,0.0,0.0,60,0.00,,,0.00,37,WeatherCatV1.02B3,2013-09-06 15:17:00,
2013-09-06 08:22:00,70.0,55.0,29.62,NNE,30,0.0,0.0,59,0.00,,,0.00,49,WeatherCatV1.02B3,2013-09-06 15:22:00,
2013-09-06 08:27:00,70.6,54.1,29.62,NNE,30,0.0,0.0,56,0.00,,,0.00,195,WeatherCatV1.02B3,2013-09-06 15:27:00,
2013-09-06 08:32:00,71.6,54.6,29.62,NNE,30,0.0,1.0,55,0.00,,,0.00,315,WeatherCatV1.02B3,2013-09-06 15:32:00,
2013-09-06 08:37:00,73.1,54.4,29.62,NNE,30,0.0,0.0,52,0.00,,,0.00,332,WeatherCatV1.02B3,2013-09-06 15:37:00,
2013-09-06 08:42:00,74.6,54.2,29.62,NNE,30,0.0,0.0,49,0.00,,,0.00,350,WeatherCatV1.02B3,2013-09-06 15:42:00,
2013-09-06 08:47:00,75.5,53.8,29.62,NNE,30,0.0,1.0,47,0.00,,,0.00,366,WeatherCatV1.02B3,2013-09-06 15:47:00,
2013-09-06 08:52:00,77.1,54.7,29.62,NNE,30,0.0,0.0,46,0.00,,,0.00,383,WeatherCatV1.02B3,2013-09-06 15:52:00,
2013-09-06 08:57:00,78.3,55.2,29.62,NNE,30,0.0,0.0,45,0.00,,,0.00,399,WeatherCatV1.02B3,2013-09-06 15:57:00,
2013-09-06 09:02:00,79.4,54.3,29.62,NE,36,0.0,0.0,42,0.00,,,0.00,415,WeatherCatV1.02B3,2013-09-06 16:02:00,
2013-09-06 09:07:00,80.1,54.2,29.62,ENE,65,1.0,1.0,41,0.00,,,0.00,432,WeatherCatV1.02B3,2013-09-06 16:07:00,
2013-09-06 09:12:00,81.0,54.4,29.62,East,93,0.0,0.0,40,0.00,,,0.00,445,WeatherCatV1.02B3,2013-09-06 16:12:00,
2013-09-06 09:17:00,82.1,54.7,29.62,ESE,115,0.0,1.0,39,0.00,,,0.00,462,WeatherCatV1.02B3,2013-09-06 16:17:00,
2013-09-06 09:22:00,83.2,54.2,29.62,WSW,246,0.0,1.0,37,0.00,,,0.00,476,WeatherCatV1.02B3,2013-09-06 16:22:00,
2013-09-06 09:27:00,84.2,54.3,29.62,SE,136,0.0,1.0,36,0.00,,,0.00,492,WeatherCatV1.02B3,2013-09-06 16:27:00,
2013-09-06 09:32:00,85.3,54.5,29.62,WSW,244,2.0,2.0,35,0.00,,,0.00,506,WeatherCatV1.02B3,2013-09-06 16:32:00,
2013-09-06 09:37:00,86.3,54.6,29.62,East,96,0.0,0.0,34,0.00,,,0.00,522,WeatherCatV1.02B3,2013-09-06 16:37:00,
2013-09-06 09:42:00,87.4,54.7,29.62,West,267,0.0,3.0,33,0.00,,,0.00,536,WeatherCatV1.02B3,2013-09-06 16:42:00,
2013-09-06 09:47:00,88.5,54.0,29.62,WSW,254,1.0,3.0,31,0.00,,,0.00,548,WeatherCatV1.02B3,2013-09-06 16:47:00,
2013-09-06 09:52:00,88.6,54.0,29.62,SSE,150,0.0,0.0,31,0.00,,,0.00,564,WeatherCatV1.02B3,2013-09-06 16:52:00,
2013-09-06 09:57:00,89.5,53.9,29.62,South,181,0.0,3.0,30,0.00,,,0.00,577,WeatherCatV1.02B3,2013-09-06 16:57:00,
2013-09-06 10:02:00,90.7,54.0,29.62,NW,308,0.0,3.0,29,0.00,,,0.00,592,WeatherCatV1.02B3,2013-09-06 17:02:00,
2013-09-06 10:07:00,91.2,55.4,29.62,WNW,295,0.0,2.0,30,0.00,,,0.00,605,WeatherCatV1.02B3,2013-09-06 17:07:00,
2013-09-06 10:12:00,92.0,54.2,29.62,NW,307,0.0,2.0,28,0.00,,,0.00,619,WeatherCatV1.02B3,2013-09-06 17:12:00,
2013-09-06 10:17:00,92.7,52.7,29.62,ESE,123,0.0,1.0,26,0.00,,,0.00,633,WeatherCatV1.02B3,2013-09-06 17:17:00,
2013-09-06 10:22:00,93.5,54.5,29.62,SW,227,0.0,1.0,27,0.00,,,0.00,645,WeatherCatV1.02B3,2013-09-06 17:22:00,
2013-09-06 10:27:00,94.4,55.2,29.62,West,271,3.0,4.0,27,0.00,,,0.00,656,WeatherCatV1.02B3,2013-09-06 17:27:00,
2013-09-06 10:32:00,95.3,54.9,29.62,WNW,294,4.0,4.0,26,0.00,,,0.00,663,WeatherCatV1.02B3,2013-09-06 17:32:00,
2013-09-06 10:37:00,95.4,53.9,29.62,ESE,102,1.0,3.0,25,0.00,,,0.00,679,WeatherCatV1.02B3,2013-09-06 17:37:00,
2013-09-06 10:42:00,95.6,55.2,29.62,WNW,282,2.0,4.0,26,0.00,,,0.00,687,WeatherCatV1.02B3,2013-09-06 17:42:00,
2013-09-06 10:47:00,96.2,54.6,29.62,WNW,286,1.0,3.0,25,0.00,,,0.00,700,WeatherCatV1.02B3,2013-09-06 17:47:00,
2013-09-06 10:52:00,97.0,55.3,29.62,West,278,3.0,4.0,25,0.00,,,0.00,710,WeatherCatV1.02B3,2013-09-06 17:52:00,
2013-09-06 10:57:00,97.1,56.4,29.62,WSW,253,4.0,6.0,26,0.00,,,0.00,719,WeatherCatV1.02B3,2013-09-06 17:57:00,
2013-09-06 11:02:00,97.1,55.4,29.62,WNW,295,4.0,5.0,25,0.00,,,0.00,728,WeatherCatV1.02B3,2013-09-06 18:02:00,
2013-09-06 11:07:00,97.0,56.4,29.62,West,275,3.0,6.0,26,0.00,,,0.00,737,WeatherCatV1.02B3,2013-09-06 18:07:00,
2013-09-06 11:12:00,97.3,55.5,29.62,SW,228,3.0,6.0,25,0.00,,,0.00,745,WeatherCatV1.02B3,2013-09-06 18:12:00,
2013-09-06 11:17:00,98.5,55.4,29.62,WSW,244,3.0,3.0,24,0.00,,,0.00,752,WeatherCatV1.02B3,2013-09-06 18:17:00,
2013-09-06 11:22:00,98.8,54.5,29.62,South,184,0.0,2.0,23,0.00,,,0.00,765,WeatherCatV1.02B3,2013-09-06 18:22:00,
2013-09-06 11:27:00,100.4,54.6,29.62,South,190,1.0,3.0,22,0.00,,,0.00,775,WeatherCatV1.02B3,2013-09-06 18:27:00,
2013-09-06 11:32:00,100.1,55.6,29.62,WSW,254,1.0,2.0,23,0.00,,,0.00,780,WeatherCatV1.02B3,2013-09-06 18:32:00,
2013-09-06 11:37:00,100.2,54.4,29.62,NNW,334,1.0,2.0,22,0.00,,,0.00,788,WeatherCatV1.02B3,2013-09-06 18:37:00,
2013-09-06 11:42:00,100.3,54.5,29.62,ENE,57,1.0,4.0,22,0.00,,,0.00,793,WeatherCatV1.02B3,2013-09-06 18:42:00,
2013-09-06 11:47:00,100.6,54.8,29.62,ENE,64,4.0,5.0,22,0.00,,,0.00,800,WeatherCatV1.02B3,2013-09-06 18:47:00,
2013-09-06 11:52:00,100.6,53.5,29.62,North,11,1.0,2.0,21,0.00,,,0.00,807,WeatherCatV1.02B3,2013-09-06 18:52:00,
2013-09-06 11:57:00,100.5,53.4,29.62,ESE,123,2.0,6.0,21,0.00,,,0.00,812,WeatherCatV1.02B3,2013-09-06 18:57:00,
2013-09-06 12:02:00,100.4,55.8,29.62,NNE,27,1.0,3.0,23,0.00,,,0.00,817,WeatherCatV1.02B3,2013-09-06 19:02:00,
2013-09-06 12:07:00,100.7,53.6,29.62,West,281,0.0,2.0,21,0.00,,,0.00,819,WeatherCatV1.02B3,2013-09-06 19:07:00,
2013-09-06 12:12:00,101.3,55.3,29.62,East,100,0.0,5.0,22,0.00,,,0.00,826,WeatherCatV1.02B3,2013-09-06 19:12:00,
2013-09-06 12:17:00,100.9,55.0,29.62,East,80,2.0,4.0,22,0.00,,,0.00,831,WeatherCatV1.02B3,2013-09-06 19:17:00,
2013-09-06 12:22:00,101.2,54.0,29.62,NE,36,0.0,2.0,21,0.00,,,0.00,830,WeatherCatV1.02B3,2013-09-06 19:22:00,
2013-09-06 12:27:00,101.6,51.6,29.62,NNE,13,1.0,3.0,19,0.00,,,0.00,837,WeatherCatV1.02B3,2013-09-06 19:27:00,
2013-09-06 12:32:00,101.4,51.4,29.62,West,265,1.0,4.0,19,0.00,,,0.00,837,WeatherCatV1.02B3,2013-09-06 19:32:00,
2013-09-06 12:37:00,101.1,52.6,29.62,NE,44,1.0,4.0,20,0.00,,,0.00,838,WeatherCatV1.02B3,2013-09-06 19:37:00,
2013-09-06 12:42:00,101.8,53.1,29.62,ENE,67,2.0,2.0,20,0.00,,,0.00,842,WeatherCatV1.02B3,2013-09-06 19:42:00,
2013-09-06 12:47:00,101.4,52.8,29.62,ENE,65,2.0,2.0,20,0.00,,,0.00,840,WeatherCatV1.02B3,2013-09-06 19:47:00,
2013-09-06 12:52:00,101.7,51.7,29.62,WNW,295,0.0,3.0,19,0.00,,,0.00,846,WeatherCatV1.02B3,2013-09-06 19:52:00,
2013-09-06 12:57:00,101.3,55.3,29.62,NE,52,2.0,3.0,22,0.00,,,0.00,840,WeatherCatV1.02B3,2013-09-06 19:57:00,
2013-09-06 13:02:00,101.7,51.7,29.62,NNE,13,1.0,4.0,19,0.00,,,0.00,842,WeatherCatV1.02B3,2013-09-06 20:02:00,
2013-09-06 13:07:00,101.7,53.0,29.62,ENE,67,2.0,2.0,20,0.00,,,0.00,844,WeatherCatV1.02B3,2013-09-06 20:07:00,
2013-09-06 13:12:00,101.8,54.5,29.62,ENE,64,1.0,3.0,21,0.00,,,0.00,840,WeatherCatV1.02B3,2013-09-06 20:12:00,
2013-09-06 13:17:00,101.6,53.0,29.62,ENE,72,0.0,2.0,20,0.00,,,0.00,838,WeatherCatV1.02B3,2013-09-06 20:17:00,
2013-09-06 13:22:00,102.2,52.1,29.62,ENE,73,0.0,4.0,19,0.00,,,0.00,838,WeatherCatV1.02B3,2013-09-06 20:22:00,
2013-09-06 13:28:00,102.2,53.5,29.62,East,98,2.0,3.0,20,0.00,,,0.00,835,WeatherCatV1.02B3,2013-09-06 20:28:00,
2013-09-06 13:33:00,102.3,52.1,29.62,ENE,76,1.0,5.0,19,0.00,,,0.00,831,WeatherCatV1.02B3,2013-09-06 20:33:00,
2013-09-06 13:38:00,102.0,53.3,29.62,ENE,72,1.0,3.0,20,0.00,,,0.00,831,WeatherCatV1.02B3,2013-09-06 20:38:00,
2013-09-06 13:43:00,102.0,54.6,29.62,NW,320,0.0,5.0,21,0.00,,,0.00,826,WeatherCatV1.02B3,2013-09-06 20:43:00,
2013-09-06 13:48:00,102.5,57.6,29.62,North,5,2.0,2.0,23,0.00,,,0.00,817,WeatherCatV1.02B3,2013-09-06 20:48:00,
2013-09-06 13:53:00,101.6,54.3,29.62,SE,142,4.0,5.0,21,0.00,,,0.00,816,WeatherCatV1.02B3,2013-09-06 20:53:00,
2013-09-06 13:58:00,101.0,53.8,29.62,SE,141,1.0,3.0,21,0.00,,,0.00,810,WeatherCatV1.02B3,2013-09-06 20:58:00,
2013-09-06 14:03:00,101.9,54.5,29.62,West,274,1.0,5.0,21,0.00,,,0.00,805,WeatherCatV1.02B3,2013-09-06 21:03:00,
2013-09-06 14:08:00,101.4,57.8,29.62,NNW,328,4.0,6.0,24,0.00,,,0.00,798,WeatherCatV1.02B3,2013-09-06 21:08:00,
2013-09-06 14:13:00,101.4,54.1,29.62,North,350,1.0,6.0,21,0.00,,,0.00,793,WeatherCatV1.02B3,2013-09-06 21:13:00,
2013-09-06 14:18:00,100.7,54.8,29.62,West,263,6.0,7.0,22,0.00,,,0.00,788,WeatherCatV1.02B3,2013-09-06 21:18:00,
2013-09-06 14:23:00,101.3,55.3,29.62,North,11,0.0,3.0,22,0.00,,,0.00,779,WeatherCatV1.02B3,2013-09-06 21:23:00,
2013-09-06 14:28:00,101.4,55.4,29.62,SW,229,3.0,5.0,22,0.00,,,0.00,770,WeatherCatV1.02B3,2013-09-06 21:28:00,
2013-09-06 14:33:00,99.9,55.4,29.62,NW,321,1.0,4.0,23,0.00,,,0.00,766,WeatherCatV1.02B3,2013-09-06 21:33:00,
2013-09-06 14:38:00,99.7,54.0,29.62,West,261,7.0,7.0,22,0.00,,,0.00,752,WeatherCatV1.02B3,2013-09-06 21:38:00,
2013-09-06 14:43:00,100.1,54.3,29.62,WSW,243,5.0,9.0,22,0.00,,,0.00,745,WeatherCatV1.02B3,2013-09-06 21:43:00,
2013-09-06 14:48:00,100.7,53.6,29.62,WNW,298,2.0,8.0,21,0.00,,,0.00,735,WeatherCatV1.02B3,2013-09-06 21:48:00,
2013-09-06 14:53:00,101.2,54.0,29.62,ENE,65,2.0,3.0,21,0.00,,,0.00,728,WeatherCatV1.02B3,2013-09-06 21:53:00,
2013-09-06 14:58:00,102.2,54.8,29.62,WNW,297,2.0,3.0,21,0.00,,,0.00,719,WeatherCatV1.02B3,2013-09-06 21:58:00,
2013-09-06 15:03:00,101.3,55.3,29.62,West,269,0.0,3.0,22,0.00,,,0.00,712,WeatherCatV1.02B3,2013-09-06 22:03:00,
2013-09-06 15:08:00,102.0,54.6,29.62,WNW,284,6.0,6.0,21,0.00,,,0.00,698,WeatherCatV1.02B3,2013-09-06 22:08:00,
2013-09-06 15:13:00,101.1,52.6,29.62,WNW,283,7.0,10.0,20,0.00,,,0.00,691,WeatherCatV1.02B3,2013-09-06 22:13:00,
2013-09-06 15:18:00,100.8,50.9,29.62,SSW,205,5.0,7.0,19,0.00,,,0.00,680,WeatherCatV1.02B3,2013-09-06 22:18:00,
2013-09-06 15:23:00,100.7,52.2,29.62,West,270,9.0,9.0,20,0.00,,,0.00,668,WeatherCatV1.02B3,2013-09-06 22:23:00,
2013-09-06 15:28:00,100.1,51.7,29.62,West,259,1.0,7.0,20,0.00,,,0.00,654,WeatherCatV1.02B3,2013-09-06 22:28:00,
2013-09-06 15:33:00,100.3,50.5,29.62,West,280,4.0,7.0,19,0.00,,,0.00,643,WeatherCatV1.02B3,2013-09-06 22:33:00,
2013-09-06 15:38:00,99.9,51.6,29.62,West,260,7.0,7.0,20,0.00,,,0.00,631,WeatherCatV1.02B3,2013-09-06 22:38:00,
2013-09-06 15:43:00,99.6,51.3,29.62,WSW,241,3.0,9.0,20,0.00,,,0.00,621,WeatherCatV1.02B3,2013-09-06 22:43:00,
2013-09-06 15:48:00,99.9,52.9,29.62,WSW,240,6.0,6.0,21,0.00,,,0.00,606,WeatherCatV1.02B3,2013-09-06 22:48:00,
2013-09-06 15:53:00,99.2,53.6,29.62,West,273,2.0,8.0,22,0.00,,,0.00,592,WeatherCatV1.02B3,2013-09-06 22:53:00,
2013-09-06 15:58:00,99.3,51.1,29.62,WNW,297,6.0,7.0,20,0.00,,,0.00,582,WeatherCatV1.02B3,2013-09-06 22:58:00,
2013-09-06 16:03:00,99.2,51.0,29.62,WNW,301,2.0,7.0,20,0.00,,,0.00,566,WeatherCatV1.02B3,2013-09-06 23:03:00,
2013-09-06 16:08:00,99.5,51.3,29.62,WSW,257,7.0,7.0,20,0.00,,,0.00,554,WeatherCatV1.02B3,2013-09-06 23:08:00,
2013-09-06 16:13:00,98.7,50.6,29.62,WSW,249,6.0,6.0,20,0.00,,,0.00,538,WeatherCatV1.02B3,2013-09-06 23:13:00,
2013-09-06 16:18:00,98.3,50.3,29.62,WSW,248,2.0,6.0,20,0.00,,,0.00,526,WeatherCatV1.02B3,2013-09-06 23:18:00,
2013-09-06 16:23:00,97.9,50.0,29.62,WNW,300,5.0,9.0,20,0.00,,,0.00,512,WeatherCatV1.02B3,2013-09-06 23:23:00,
2013-09-06 16:28:00,97.7,48.4,29.62,WSW,258,5.0,12.0,19,0.00,,,0.00,496,WeatherCatV1.02B3,2013-09-06 23:28:00,
2013-09-06 16:33:00,97.4,48.2,29.62,WNW,292,0.0,9.0,19,0.00,,,0.00,480,WeatherCatV1.02B3,2013-09-06 23:33:00,
2013-09-06 16:38:00,97.3,46.7,29.62,SW,232,5.0,11.0,18,0.00,,,0.00,466,WeatherCatV1.02B3,2013-09-06 23:38:00,
2013-09-06 16:43:00,97.4,46.7,29.62,West,265,2.0,6.0,18,0.00,,,0.00,450,WeatherCatV1.02B3,2013-09-06 23:43:00,
2013-09-06 16:48:00,96.9,50.4,29.62,NW,324,1.0,3.0,21,0.00,,,0.00,434,WeatherCatV1.02B3,2013-09-06 23:48:00,
2013-09-06 16:53:00,97.3,46.7,29.62,North,355,0.0,2.0,18,0.00,,,0.00,420,WeatherCatV1.02B3,2013-09-06 23:53:00,
2013-09-06 16:58:00,96.7,46.2,29.62,ESE,103,2.0,5.0,18,0.00,,,0.00,406,WeatherCatV1.02B3,2013-09-06 23:58:00,
2013-09-06 17:03:00,97.0,46.4,29.62,SSE,161,0.0,4.0,18,0.00,,,0.00,390,WeatherCatV1.02B3,2013-09-07 00:03:00,
2013-09-06 17:08:00,96.6,47.5,29.62,North,5,0.0,1.0,19,0.00,,,0.00,373,WeatherCatV1.02B3,2013-09-07 00:08:00,
2013-09-06 17:13:00,96.1,48.5,29.62,WNW,302,1.0,4.0,20,0.00,,,0.00,357,WeatherCatV1.02B3,2013-09-07 00:13:00,
2013-09-06 17:18:00,96.3,48.6,29.62,SW,236,2.0,4.0,20,0.00,,,0.00,339,WeatherCatV1.02B3,2013-09-07 00:18:00,
2013-09-06 17:23:00,96.1,49.8,29.62,WNW,284,1.0,3.0,21,0.00,,,0.00,323,WeatherCatV1.02B3,2013-09-07 00:23:00,
2013-09-06 17:28:00,95.8,49.5,29.62,WSW,253,1.0,6.0,21,0.00,,,0.00,306,WeatherCatV1.02B3,2013-09-07 00:28:00,
2013-09-06 17:33:00,95.5,50.5,29.62,WSW,237,2.0,6.0,22,0.00,,,0.00,292,WeatherCatV1.02B3,2013-09-07 00:33:00,
2013-09-06 17:38:00,95.1,51.4,29.62,NNW,329,1.0,5.0,23,0.00,,,0.00,276,WeatherCatV1.02B3,2013-09-07 00:38:00,
2013-09-06 17:43:00,94.7,51.1,29.62,NNW,329,2.0,4.0,23,0.00,,,0.00,257,WeatherCatV1.02B3,2013-09-07 00:43:00,
2013-09-06 17:48:00,94.3,48.3,29.62,NNW,336,1.0,3.0,21,0.00,,,0.00,243,WeatherCatV1.02B3,2013-09-07 00:48:00,
2013-09-06 17:53:00,93.9,50.4,29.62,West,269,3.0,5.0,23,0.00,,,0.00,225,WeatherCatV1.02B3,2013-09-07 00:53:00,
2013-09-06 17:58:00,93.5,47.7,29.62,WNW,300,0.0,4.0,21,0.00,,,0.00,204,WeatherCatV1.02B3,2013-09-07 00:58:00,
2013-09-06 18:03:00,93.1,46.0,29.62,WSW,237,2.0,6.0,20,0.00,,,0.00,183,WeatherCatV1.02B3,2013-09-07 01:03:00,
2013-09-06 18:08:00,93.1,46.0,29.62,SE,144,2.0,4.0,20,0.00,,,0.00,165,WeatherCatV1.02B3,2013-09-07 01:08:00,
2013-09-06 18:13:00,92.7,47.0,29.62,NNE,12,1.0,2.0,21,0.00,,,0.00,142,WeatherCatV1.02B3,2013-09-07 01:13:00,
2013-09-06 18:18:00,92.0,42.4,29.62,WNW,302,3.0,3.0,18,0.00,,,0.00,123,WeatherCatV1.02B3,2013-09-07 01:18:00,
2013-09-06 18:23:00,91.8,42.2,29.62,NNW,339,0.0,4.0,18,0.00,,,0.00,104,WeatherCatV1.02B3,2013-09-07 01:23:00,
2013-09-06 18:28:00,91.3,41.8,29.62,NNE,22,0.0,6.0,18,0.00,,,0.00,23,WeatherCatV1.02B3,2013-09-07 01:28:00,
2013-09-06 18:33:00,90.6,42.7,29.62,NW,312,1.0,3.0,19,0.00,,,0.00,18,WeatherCatV1.02B3,2013-09-07 01:33:00,
2013-09-06 18:38:00,89.9,43.4,29.62,NNW,342,1.0,1.0,20,0.00,,,0.00,16,WeatherCatV1.02B3,2013-09-07 01:38:00,
2013-09-06 18:43:00,89.3,44.2,29.62,NE,49,0.0,0.0,21,0.00,,,0.00,14,WeatherCatV1.02B3,2013-09-07 01:43:00,
2013-09-06 18:48:00,88.6,43.6,29.62,NE,49,0.0,1.0,21,0.00,,,0.00,14,WeatherCatV1.02B3,2013-09-07 01:48:00,
2013-09-06 18:53:00,87.1,44.8,29.62,North,5,0.0,1.0,23,0.00,,,0.00,12,WeatherCatV1.02B3,2013-09-07 01:53:00,
2013-09-06 18:58:00,85.9,43.8,29.62,North,0,0.0,2.0,23,0.00,,,0.00,11,WeatherCatV1.02B3,2013-09-07 01:58:00,
2013-09-06 19:03:00,85.9,44.9,29.62,WNW,293,0.0,1.0,24,0.00,,,0.00,9,WeatherCatV1.02B3,2013-09-07 02:03:00,
2013-09-06 19:08:00,86.2,44.0,29.62,WNW,289,0.0,2.0,23,0.00,,,0.00,7,WeatherCatV1.02B3,2013-09-07 02:08:00,
2013-09-06 19:13:00,85.2,45.4,29.62,WNW,289,0.0,1.0,25,0.00,,,0.00,5,WeatherCatV1.02B3,2013-09-07 02:13:00,
2013-09-06 19:18:00,83.9,44.3,29.62,West,271,1.0,2.0,25,0.00,,,0.00,0,WeatherCatV1.02B3,2013-09-07 02:18:00,
2013-09-06 19:23:00,84.1,44.5,29.62,West,271,0.0,1.0,25,0.00,,,0.00,0,WeatherCatV1.02B3,2013-09-07 02:23:00,
2013-09-06 19:28:00,83.6,45.1,29.62,West,271,0.0,1.0,26,0.00,,,0.00,0,WeatherCatV1.02B3,2013-09-07 02:28:00,
2013-09-06 19:33:00,82.6,44.2,29.62,West,271,0.0,0.0,26,0.00,,,0.00,0,WeatherCatV1.02B3,2013-09-07 02:33:00,
2013-09-06 19:38:00,82.1,44.8,29.62,West,271,0.0,1.0,27,0.00,,,0.00,0,WeatherCatV1.02B3,2013-09-07 02:38:00,
2013-09-06 19:43:00,81.9,44.6,29.62,West,271,0.0,0.0,27,0.00,,,0.00,0,WeatherCatV1.02B3,2013-09-07 02:43:00,
2013-09-06 19:48:00,81.6,44.4,29.62,West,271,0.0,0.0,27,0.00,,,0.00,0,WeatherCatV1.02B3,2013-09-07 02:48:00,
2013-09-06 19:53:00,81.1,44.9,29.62,West,271,0.0,0.0,28,0.00,,,0.00,0,WeatherCatV1.02B3,2013-09-07 02:53:00,
2013-09-06 19:58:00,80.9,44.7,29.62,West,271,0.0,0.0,28,0.00,,,0.00,0,WeatherCatV1.02B3,2013-09-07 02:58:00,
2013-09-06 20:03:00,80.5,45.3,29.62,West,271,0.0,0.0,29,0.00,,,0.00,0,WeatherCatV1.02B3,2013-09-07 03:03:00,
2013-09-06 20:08:00,79.4,44.3,29.62,West,271,0.0,0.0,29,0.00,,,0.00,0,WeatherCatV1.02B3,2013-09-07 03:08:00,
2013-09-06 20:13:00,79.3,45.2,29.62,West,271,0.0,0.0,30,0.00,,,0.00,0,WeatherCatV1.02B3,2013-09-07 03:13:00,
2013-09-06 20:18:00,78.8,44.7,29.62,West,271,0.0,0.0,30,0.00,,,0.00,0,WeatherCatV1.02B3,2013-09-07 03:18:00,
2013-09-06 20:23:00,78.2,45.9,29.62,West,271,0.0,0.0,32,0.00,,,0.00,0,WeatherCatV1.02B3,2013-09-07 03:23:00,
2013-09-06 20:28:00,78.1,45.8,29.62,West,271,0.0,0.0,32,0.00,,,0.00,0,WeatherCatV1.02B3,2013-09-07 03:28:00,
2013-09-06 20:33:00,77.2,45.8,29.62,West,271,0.0,0.0,33,0.00,,,0.00,0,WeatherCatV1.02B3,2013-09-07 03:33:00,
2013-09-06 20:38:00,76.4,45.1,29.62,West,271,0.0,0.0,33,0.00,,,0.00,0,WeatherCatV1.02B3,2013-09-07 03:38:00,
2013-09-06 20:43:00,76.2,45.0,29.62,West,271,0.0,0.0,33,0.00,,,0.00,0,WeatherCatV1.02B3,2013-09-07 03:43:00,
2013-09-06 20:48:00,75.9,46.3,29.62,West,271,0.0,0.0,35,0.00,,,0.00,0,WeatherCatV1.02B3,2013-09-07 03:48:00,
2013-09-06 20:53:00,75.3,46.5,29.62,West,271,0.0,0.0,36,0.00,,,0.00,0,WeatherCatV1.02B3,2013-09-07 03:53:00,
2013-09-06 20:58:00,74.9,44.6,29.62,West,271,0.0,0.0,34,0.00,,,0.00,0,WeatherCatV1.02B3,2013-09-07 03:58:00,
2013-09-06 21:01:00,75.2,44.9,29.62,West,271,0.0,1.0,34,0.00,,,0.00,0,WeatherCatV1.02B3,2013-09-07 04:01:00,
2013-09-06 21:06:00,74.9,44.6,29.62,West,271,0.0,1.0,34,0.00,,,0.00,0,WeatherCatV1.02B3,2013-09-07 04:06:00,
2013-09-06 21:11:00,74.0,43.8,29.62,West,271,0.0,0.0,34,0.00,,,0.00,0,WeatherCatV1.02B3,2013-09-07 04:11:00,
2013-09-06 21:16:00,73.3,44.0,29.62,West,271,0.0,0.0,35,0.00,,,0.00,0,WeatherCatV1.02B3,2013-09-07 04:16:00,
2013-09-06 21:21:00,72.3,44.6,29.62,West,271,0.0,0.0,37,0.00,,,0.00,0,WeatherCatV1.02B3,2013-09-07 04:21:00,
2013-09-06 21:26:00,71.7,48.0,29.62,West,271,0.0,0.0,43,0.00,,,0.00,0,WeatherCatV1.02B3,2013-09-07 04:26:00,
2013-09-06 21:31:00,71.2,50.5,29.62,West,271,0.0,0.0,48,0.00,,,0.00,0,WeatherCatV1.02B3,2013-09-07 04:31:00,
2013-09-06 21:36:00,70.9,51.3,29.62,West,271,0.0,0.0,50,0.00,,,0.00,0,WeatherCatV1.02B3,2013-09-07 04:36:00,
2013-09-06 21:41:00,71.1,51.5,29.62,West,271,0.0,0.0,50,0.00,,,0.00,0,WeatherCatV1.02B3,2013-09-07 04:41:00,
2013-09-06 21:46:00,71.0,49.2,29.62,West,271,0.0,0.0,46,0.00,,,0.00,0,WeatherCatV1.02B3,2013-09-07 04:46:00,
2013-09-06 21:51:00,70.0,49.4,29.62,West,271,0.0,0.0,48,0.00,,,0.00,0,WeatherCatV1.02B3,2013-09-07 04:51:00,
2013-09-06 21:56:00,69.3,51.9,29.62,West,271,0.0,0.0,54,0.00,,,0.00,0,WeatherCatV1.02B3,2013-09-07 04:56:00,
2013-09-06 22:01:00,68.9,51.6,29.62,West,271,0.0,0.0,54,0.00,,,0.00,0,WeatherCatV1.02B3,2013-09-07 05:01:00,
2013-09-06 22:06:00,69.0,53.6,29.62,West,271,0.0,0.0,58,0.00,,,0.00,0,WeatherCatV1.02B3,2013-09-07 05:06:00,
2013-09-06 22:11:00,68.8,55.2,29.62,West,271,0.0,0.0,62,0.00,,,0.00,0,WeatherCatV1.02B3,2013-09-07 05:11:00,
2013-09-06 22:16:00,67.5,53.6,29.62,West,271,0.0,1.0,61,0.00,,,0.00,0,WeatherCatV1.02B3,2013-09-07 05:16:00,
2013-09-06 22:21:00,67.2,54.6,29.62,West,271,0.0,0.0,64,0.00,,,0.00,0,WeatherCatV1.02B3,2013-09-07 05:21:00,
2013-09-06 22:26:00,67.5,55.3,29.62,West,271,0.0,0.0,65,0.00,,,0.00,0,WeatherCatV1.02B3,2013-09-07 05:26:00,
2013-09-06 22:31:00,67.1,55.4,29.62,West,271,0.0,0.0,66,0.00,,,0.00,0,WeatherCatV1.02B3,2013-09-07 05:31:00,
2013-09-06 22:36:00,66.3,55.4,29.62,West,271,0.0,0.0,68,0.00,,,0.00,0,WeatherCatV1.02B3,2013-09-07 05:36:00,
2013-09-06 22:41:00,66.7,55.8,29.62,West,271,0.0,0.0,68,0.00,,,0.00,0,WeatherCatV1.02B3,2013-09-07 05:41:00,
2013-09-06 22:46:00,66.3,54.6,29.62,West,271,0.0,0.0,66,0.00,,,0.00,0,WeatherCatV1.02B3,2013-09-07 05:46:00,
2013-09-06 22:51:00,66.6,53.2,29.62,West,271,0.0,0.0,62,0.00,,,0.00,0,WeatherCatV1.02B3,2013-09-07 05:51:00,
2013-09-06 22:56:00,65.8,51.5,29.62,West,271,0.0,0.0,60,0.00,,,0.00,0,WeatherCatV1.02B3,2013-09-07 05:56:00,
2013-09-06 23:01:00,65.7,51.4,29.62,West,271,0.0,0.0,60,0.00,,,0.00,0,WeatherCatV1.02B3,2013-09-07 06:01:00,
2013-09-06 23:06:00,65.7,51.4,29.62,West,271,0.0,0.0,60,0.00,,,0.00,0,WeatherCatV1.02B3,2013-09-07 06:06:00,
2013-09-06 23:11:00,65.2,50.5,29.62,West,271,0.0,0.0,59,0.00,,,0.00,0,WeatherCatV1.02B3,2013-09-07 06:11:00,
2013-09-06 23:16:00,64.6,50.4,29.62,West,271,0.0,0.0,60,0.00,,,0.00,0,WeatherCatV1.02B3,2013-09-07 06:16:00,
2013-09-06 23:21:00,64.8,49.2,29.62,West,271,0.0,0.0,57,0.00,,,0.00,0,WeatherCatV1.02B3,2013-09-07 06:21:00,
2013-09-06 23:26:00,65.3,51.1,29.62,West,271,0.0,0.0,60,0.00,,,0.00,0,WeatherCatV1.02B3,2013-09-07 06:26:00,
2013-09-06 23:31:00,64.8,50.1,29.62,West,271,0.0,0.0,59,0.00,,,0.00,0,WeatherCatV1.02B3,2013-09-07 06:31:00,
2013-09-06 23:36:00,64.4,49.3,29.62,West,271,0.0,0.0,58,0.00,,,0.00,0,WeatherCatV1.02B3,2013-09-07 06:36:00,
2013-09-06 23:41:00,64.4,49.8,29.62,West,271,0.0,0.0,59,0.00,,,0.00,0,WeatherCatV1.02B3,2013-09-07 06:41:00,
2013-09-06 23:46:00,64.3,49.7,29.62,West,271,0.0,0.0,59,0.00,,,0.00,0,WeatherCatV1.02B3,2013-09-07 06:46:00,
2013-09-06 23:51:00,64.3,49.2,29.62,West,271,0.0,0.0,58,0.00,,,0.00,0,WeatherCatV1.02B3,2013-09-07 06:51:00,
2013-09-06 23:56:00,63.7,48.6,29.62,West,271,0.0,0.0,58,0.00,,,0.00,0,WeatherCatV1.02B3,2013-09-07 06:56:00,